Johnson City, Oregon
Current Conditions -  °F | °C
As of 8:53 AM on Wednesday 26 Nov 2014 (Local Time) from KPDX Reporting Station
Overcast Overcast  
Wind Chill: 57°   Ceiling: 4500
Heat Index: 57°   Visibility: 10mi
Dew Point: 52°   Wind: 6mph
Humidity: 83%   Direction: 120°ESE
Pressure: 30.18"   Gusts: NA
Location:  45.4079°N, 122.613°W
Report Text: KPDX 261653Z 12005KT 10SM OVC045 14/11 A3018 RMK AO2 SLP218 T01390111
Loading
Personal Weather Stations






























Interactive Weather Map New forecast layout! Learn more

10-Day Weather Forecast

Advertisements
Track Severe Weather on mobile